createdAt,value
2018-05-26T00:01:59.728Z,19.86
2018-05-26T00:04:28.005Z,20.06
2018-05-26T00:06:56.285Z,19.68
2018-05-26T00:09:24.557Z,19.61
2018-05-26T00:11:52.846Z,19.82
2018-05-26T00:14:21.106Z,19.84
2018-05-26T00:16:49.385Z,19.82
2018-05-26T00:19:17.653Z,19.84
2018-05-26T00:21:45.934Z,19.88
2018-05-26T00:24:14.205Z,19.76
2018-05-26T00:26:42.485Z,19.74
2018-05-26T00:29:10.757Z,19.66
2018-05-26T00:31:39.022Z,19.69
2018-05-26T00:34:07.298Z,19.69
2018-05-26T00:36:35.591Z,19.54
2018-05-26T00:39:03.874Z,19.59
2018-05-26T00:41:32.153Z,19.54
2018-05-26T00:44:00.429Z,19.43
2018-05-26T00:46:28.702Z,19.20
2018-05-26T00:48:56.993Z,18.98
2018-05-26T00:51:25.266Z,19.19
2018-05-26T00:53:53.553Z,19.20
2018-05-26T00:56:21.837Z,19.19
2018-05-26T00:58:50.117Z,19.35
2018-05-26T01:01:18.418Z,19.28
2018-05-26T01:03:46.697Z,19.20
2018-05-26T01:06:14.979Z,19.28
2018-05-26T01:08:43.251Z,19.10
2018-05-26T01:11:11.537Z,18.69
2018-05-26T01:13:39.821Z,18.53
2018-05-26T01:16:08.108Z,18.94
2018-05-26T01:18:36.397Z,18.88
2018-05-26T01:21:04.698Z,18.92
2018-05-26T01:23:32.970Z,18.86
2018-05-26T01:26:01.243Z,18.73
2018-05-26T01:28:29.529Z,18.82
2018-05-26T01:30:57.805Z,18.84
2018-05-26T01:33:26.081Z,18.93
2018-05-26T01:35:54.381Z,18.94
2018-05-26T01:38:22.677Z,18.91
2018-05-26T01:40:50.967Z,19.07
2018-05-26T01:43:19.253Z,18.95
2018-05-26T01:45:47.529Z,18.93
2018-05-26T01:48:15.810Z,18.95
2018-05-26T01:50:44.081Z,18.97
2018-05-26T01:53:12.358Z,18.43
2018-05-26T01:55:40.641Z,18.48
2018-05-26T01:58:08.914Z,18.76
2018-05-26T02:00:37.203Z,18.53
2018-05-26T02:03:05.482Z,18.48
2018-05-26T02:05:33.774Z,18.43
2018-05-26T02:08:02.045Z,18.39
2018-05-26T02:10:30.317Z,18.33
2018-05-26T02:12:58.593Z,18.54
2018-05-26T02:15:26.865Z,18.64
2018-05-26T02:17:55.145Z,18.55
2018-05-26T02:20:23.422Z,18.70
2018-05-26T02:22:51.701Z,18.63
2018-05-26T02:25:19.978Z,18.74
2018-05-26T02:27:49.836Z,18.60
2018-05-26T02:30:18.110Z,18.79
2018-05-26T02:32:46.418Z,18.80
2018-05-26T02:35:14.690Z,18.54
2018-05-26T02:37:42.966Z,18.39
2018-05-26T02:40:11.260Z,18.44
2018-05-26T02:42:39.533Z,18.38
2018-05-26T02:45:07.815Z,18.26
2018-05-26T02:47:36.094Z,18.23
2018-05-26T02:50:04.361Z,18.38
2018-05-26T02:52:32.644Z,18.32
2018-05-26T02:55:00.922Z,18.34
2018-05-26T02:57:29.189Z,18.21
2018-05-26T02:59:57.470Z,18.15
2018-05-26T03:02:25.741Z,18.22
2018-05-26T03:04:59.557Z,18.37
2018-05-26T03:07:33.386Z,17.93
2018-05-26T03:10:07.361Z,18.30
2018-05-26T03:12:41.209Z,18.11
2018-05-26T03:15:08.937Z,18.14
2018-05-26T03:17:37.979Z,18.13
2018-05-26T03:20:06.229Z,18.17
2018-05-26T03:22:34.505Z,18.16
2018-05-26T03:25:02.785Z,18.27
2018-05-26T03:27:31.053Z,18.24
2018-05-26T03:29:59.337Z,18.22
2018-05-26T03:32:27.610Z,18.35
2018-05-26T03:34:55.892Z,18.15
2018-05-26T03:37:24.170Z,18.05
2018-05-26T03:39:52.434Z,18.18
2018-05-26T03:42:21.177Z,18.24
2018-05-26T03:44:49.449Z,18.22
2018-05-26T03:47:17.729Z,18.24
2018-05-26T03:49:46.023Z,18.20
2018-05-26T03:52:14.322Z,18.24
2018-05-26T03:58:01.519Z,18.11
2018-05-26T04:00:30.563Z,18.25
2018-05-26T04:02:58.850Z,18.14
2018-05-26T04:05:27.122Z,18.12
2018-05-26T04:07:55.413Z,18.13
2018-05-26T04:10:23.689Z,18.04
2018-05-26T04:12:51.967Z,17.80
2018-05-26T04:15:20.259Z,17.83
2018-05-26T04:17:48.552Z,17.75
2018-05-26T04:20:16.847Z,17.91
2018-05-26T04:22:45.165Z,17.97
2018-05-26T04:25:13.449Z,18.06
2018-05-26T04:27:41.717Z,18.14
2018-05-26T04:30:10.001Z,17.94
2018-05-26T04:32:38.278Z,18.20
2018-05-26T04:35:06.574Z,17.98
2018-05-26T04:37:34.850Z,18.08
2018-05-26T04:40:03.126Z,18.10
2018-05-26T04:42:31.877Z,18.18
2018-05-26T04:45:00.149Z,18.22
2018-05-26T04:47:28.442Z,18.34
2018-05-26T04:49:56.717Z,18.19
2018-05-26T04:52:25.006Z,18.24
2018-05-26T04:54:53.277Z,18.34
2018-05-26T04:57:21.566Z,18.23
2018-05-26T04:59:49.842Z,17.97
2018-05-26T05:02:18.138Z,17.72
2018-05-26T05:04:46.414Z,18.06
2018-05-26T05:07:14.702Z,18.01
2018-05-26T05:09:42.989Z,18.14
2018-05-26T05:12:11.273Z,18.15
2018-05-26T05:14:39.553Z,18.35
2018-05-26T05:17:07.829Z,18.40
2018-05-26T05:19:36.122Z,18.31
2018-05-26T05:22:04.402Z,18.43
2018-05-26T05:24:32.695Z,18.45
2018-05-26T05:27:01.007Z,18.67
2018-05-26T05:29:29.325Z,18.55
2018-05-26T05:31:57.601Z,18.52
2018-05-26T05:34:25.893Z,18.75
2018-05-26T05:36:54.172Z,18.48
2018-05-26T05:39:22.450Z,18.40
2018-05-26T05:41:50.760Z,18.49
2018-05-26T05:44:19.033Z,18.60
2018-05-26T05:46:47.314Z,18.75
2018-05-26T05:49:15.609Z,18.63
2018-05-26T05:51:43.901Z,18.89
2018-05-26T05:54:12.191Z,18.68
2018-05-26T05:56:40.475Z,18.77
2018-05-26T05:59:08.758Z,18.92
2018-05-26T06:01:37.045Z,18.88
2018-05-26T06:04:05.323Z,18.98
2018-05-26T06:06:33.610Z,19.19
2018-05-26T06:09:01.906Z,19.47
2018-05-26T06:11:30.181Z,19.49
2018-05-26T06:13:58.461Z,19.67
2018-05-26T06:16:26.746Z,19.77
2018-05-26T06:18:55.021Z,19.59
2018-05-26T06:21:23.310Z,20.01
2018-05-26T06:23:51.589Z,20.31
2018-05-26T06:26:19.909Z,20.31
2018-05-26T06:28:48.146Z,20.59
2018-05-26T06:31:16.444Z,20.45
2018-05-26T06:33:44.709Z,20.59
2018-05-26T06:36:12.985Z,20.76
2018-05-26T06:38:41.266Z,20.79
2018-05-26T06:41:09.541Z,20.83
2018-05-26T06:43:37.824Z,21.11
2018-05-26T06:46:06.097Z,21.02
2018-05-26T06:48:34.381Z,21.12
2018-05-26T06:51:02.661Z,21.20
2018-05-26T06:53:30.949Z,21.42
2018-05-26T06:55:59.218Z,21.70
2018-05-26T06:58:27.488Z,21.88
2018-05-26T07:00:55.765Z,21.93
2018-05-26T07:03:24.042Z,22.51
2018-05-26T07:05:52.319Z,22.92
2018-05-26T07:08:20.585Z,23.14
2018-05-26T07:10:48.867Z,23.14
2018-05-26T07:13:17.137Z,22.85
2018-05-26T07:15:45.417Z,22.67
2018-05-26T07:18:13.686Z,22.99
2018-05-26T07:20:41.970Z,24.36
2018-05-26T07:23:10.241Z,24.11
2018-05-26T07:25:38.696Z,23.83
2018-05-26T07:28:06.961Z,25.84
2018-05-26T07:30:35.231Z,25.21
2018-05-26T07:33:03.506Z,24.00
2018-05-26T07:35:31.789Z,26.08
2018-05-26T07:38:00.785Z,26.50
2018-05-26T07:40:30.022Z,25.95
2018-05-26T07:42:58.311Z,25.01
2018-05-26T07:45:27.561Z,25.72
2018-05-26T07:47:55.854Z,26.56
2018-05-26T07:50:24.122Z,26.00
2018-05-26T07:52:52.406Z,24.96
2018-05-26T07:55:20.879Z,26.81
2018-05-26T07:57:49.269Z,27.09
2018-05-26T08:00:17.421Z,27.20
2018-05-26T08:02:45.698Z,27.16
2018-05-26T08:05:13.962Z,26.77
2018-05-26T08:07:42.237Z,27.08
2018-05-26T08:10:10.538Z,27.43
2018-05-26T08:12:43.379Z,27.01
2018-05-26T08:15:11.653Z,26.49
2018-05-26T08:17:39.955Z,26.90
2018-05-26T08:20:08.236Z,26.70
2018-05-26T08:22:36.541Z,27.21
2018-05-26T08:25:05.573Z,26.87
2018-05-26T08:27:33.848Z,27.46
2018-05-26T08:30:02.182Z,27.97
2018-05-26T08:32:31.270Z,28.34
2018-05-26T08:34:59.562Z,27.26
2018-05-26T08:37:27.831Z,27.54
2018-05-26T08:39:56.122Z,27.64
2018-05-26T08:42:24.401Z,27.30
2018-05-26T08:44:52.673Z,26.36
2018-05-26T08:47:20.957Z,27.70
2018-05-26T08:49:49.240Z,27.63
2018-05-26T08:52:17.520Z,28.13
2018-05-26T08:54:45.804Z,28.01
2018-05-26T08:57:14.634Z,27.65
2018-05-26T08:59:42.913Z,27.67
2018-05-26T09:02:11.229Z,27.48
2018-05-26T09:04:39.465Z,28.34
2018-05-26T09:07:08.080Z,27.83
2018-05-26T09:09:36.351Z,28.14
2018-05-26T09:12:04.658Z,29.13
2018-05-26T09:14:32.951Z,29.21
2018-05-26T09:17:01.231Z,30.07
2018-05-26T09:19:29.505Z,29.87
2018-05-26T09:21:57.840Z,28.72
2018-05-26T09:24:26.066Z,29.20
2018-05-26T09:26:54.348Z,29.81
2018-05-26T09:29:22.722Z,28.32
2018-05-26T09:31:51.000Z,27.98
2018-05-26T09:34:19.266Z,29.38
2018-05-26T09:36:47.552Z,28.84
2018-05-26T09:39:15.817Z,28.76
2018-05-26T09:41:44.110Z,29.40
2018-05-26T09:44:13.374Z,29.45
2018-05-26T09:46:41.720Z,28.85
2018-05-26T09:49:10.027Z,29.75
2018-05-26T09:51:38.298Z,29.30
2018-05-26T09:54:06.923Z,28.69
2018-05-26T09:56:35.202Z,29.90
2018-05-26T09:59:03.539Z,29.84
2018-05-26T10:01:31.842Z,29.48
2018-05-26T10:04:00.125Z,30.06
2018-05-26T10:06:28.397Z,30.19
2018-05-26T10:08:56.673Z,28.99
2018-05-26T10:11:25.134Z,29.20
2018-05-26T10:13:53.409Z,29.30
2018-05-26T10:16:22.635Z,28.34
2018-05-26T10:18:50.926Z,29.19
2018-05-26T10:21:19.198Z,29.69
2018-05-26T10:23:47.491Z,29.89
2018-05-26T10:29:14.064Z,29.38
2018-05-26T10:31:42.366Z,30.66
2018-05-26T10:34:10.638Z,31.06
2018-05-26T10:36:38.961Z,30.78
2018-05-26T10:39:07.238Z,29.29
2018-05-26T10:41:35.527Z,30.38
2018-05-26T10:44:03.798Z,29.99
2018-05-26T10:46:32.986Z,29.44
2018-05-26T10:49:01.270Z,29.52
2018-05-26T10:51:29.545Z,30.55
2018-05-26T10:53:57.855Z,30.65
2018-05-26T10:56:26.716Z,30.26
2018-05-26T10:58:55.013Z,30.55
2018-05-26T11:01:23.281Z,30.16
2018-05-26T11:03:51.571Z,30.68
2018-05-26T11:06:19.838Z,30.99
2018-05-26T11:08:48.118Z,30.70
2018-05-26T11:11:16.417Z,30.38
2018-05-26T11:13:44.702Z,30.39
2018-05-26T11:16:19.391Z,30.23
2018-05-26T11:18:47.607Z,30.30
2018-05-26T11:21:15.894Z,30.50
2018-05-26T11:23:44.191Z,30.42
2018-05-26T11:26:12.496Z,29.74
2018-05-26T11:28:40.961Z,30.10
2018-05-26T11:31:09.266Z,30.25
2018-05-26T11:33:37.579Z,29.80
2018-05-26T11:36:05.862Z,30.59
2018-05-26T11:38:34.134Z,30.43
2018-05-26T11:41:02.467Z,29.60
2018-05-26T11:43:30.743Z,29.89
2018-05-26T11:45:59.028Z,30.43
2018-05-26T11:48:27.294Z,30.13
2018-05-26T11:50:56.450Z,29.87
2018-05-26T11:53:24.743Z,29.92
2018-05-26T11:55:53.026Z,30.17
2018-05-26T11:58:23.263Z,30.52
2018-05-26T12:00:51.550Z,30.09
2018-05-26T12:03:19.817Z,29.56
2018-05-26T12:05:48.098Z,30.73
2018-05-26T12:08:16.395Z,30.30
2018-05-26T12:10:44.723Z,30.00
2018-05-26T12:13:12.965Z,29.53
2018-05-26T12:15:41.229Z,30.08
2018-05-26T12:18:09.509Z,30.26
2018-05-26T12:20:37.773Z,30.45
2018-05-26T12:23:06.050Z,29.96
2018-05-26T12:25:34.313Z,30.30
2018-05-26T12:28:02.595Z,30.76
2018-05-26T12:30:30.861Z,30.49
2018-05-26T12:32:59.229Z,30.81
2018-05-26T12:35:27.597Z,30.85
2018-05-26T12:37:55.881Z,29.98
2018-05-26T12:40:24.162Z,30.95
2018-05-26T12:42:52.487Z,31.46
2018-05-26T12:45:20.759Z,31.36
2018-05-26T12:47:49.038Z,31.61
2018-05-26T12:50:17.309Z,31.60
2018-05-26T12:52:51.470Z,31.71
2018-05-26T12:55:19.749Z,32.05
2018-05-26T12:57:48.058Z,32.39
2018-05-26T13:00:16.334Z,31.88
2018-05-26T13:02:44.610Z,32.15
2018-05-26T13:05:12.885Z,31.99
2018-05-26T13:07:41.166Z,31.86
2018-05-26T13:10:09.438Z,31.59
2018-05-26T13:12:37.701Z,31.83
2018-05-26T13:15:05.986Z,31.71
2018-05-26T13:17:34.275Z,31.71
2018-05-26T13:20:02.534Z,31.45
2018-05-26T13:22:30.798Z,31.66
2018-05-26T13:24:59.074Z,31.84
2018-05-26T13:27:27.344Z,31.77
2018-05-26T13:29:55.625Z,31.86
2018-05-26T13:32:23.899Z,31.89
2018-05-26T13:34:52.162Z,31.58
2018-05-26T13:37:20.439Z,31.29
2018-05-26T13:39:48.736Z,30.91
2018-05-26T13:42:17.006Z,30.53
2018-05-26T13:44:45.282Z,30.52
2018-05-26T13:47:13.558Z,30.58
2018-05-26T13:49:41.833Z,30.43
2018-05-26T13:52:10.207Z,30.19
2018-05-26T13:54:38.440Z,30.56
2018-05-26T13:57:06.678Z,29.84
2018-05-26T13:59:34.948Z,29.45
2018-05-26T14:02:03.233Z,29.69
2018-05-26T14:04:31.503Z,30.12
2018-05-26T14:06:59.797Z,30.20
2018-05-26T14:09:28.067Z,30.40
2018-05-26T14:11:56.345Z,30.17
2018-05-26T14:14:24.668Z,30.38
2018-05-26T14:16:52.933Z,30.55
2018-05-26T14:19:21.218Z,30.33
2018-05-26T14:21:49.505Z,30.12
2018-05-26T14:24:17.794Z,30.60
2018-05-26T14:26:46.070Z,31.13
2018-05-26T14:29:14.341Z,31.15
2018-05-26T14:31:42.609Z,30.95
2018-05-26T14:34:10.886Z,31.39
2018-05-26T14:36:39.165Z,30.79
2018-05-26T14:39:07.470Z,31.39
2018-05-26T14:41:35.742Z,31.41
2018-05-26T14:44:04.026Z,30.54
2018-05-26T14:46:32.297Z,31.16
2018-05-26T14:49:00.577Z,31.26
2018-05-26T14:51:28.858Z,30.80
2018-05-26T14:53:57.147Z,30.55
2018-05-26T14:56:25.414Z,30.57
2018-05-26T14:58:53.689Z,30.49
2018-05-26T15:01:21.962Z,30.39
2018-05-26T15:03:50.255Z,30.88
2018-05-26T15:06:18.521Z,31.19
2018-05-26T15:08:46.816Z,30.80
2018-05-26T15:11:15.178Z,31.02
2018-05-26T15:13:43.454Z,31.14
2018-05-26T15:16:11.735Z,31.11
2018-05-26T15:18:40.016Z,31.06
2018-05-26T15:21:08.297Z,31.03
2018-05-26T15:23:36.566Z,30.76
2018-05-26T15:26:04.841Z,30.83
2018-05-26T15:28:33.113Z,31.14
2018-05-26T15:31:01.399Z,31.16
2018-05-26T15:33:29.674Z,31.37
2018-05-26T15:35:58.058Z,31.20
2018-05-26T15:38:26.325Z,31.03
2018-05-26T15:40:54.611Z,30.74
2018-05-26T15:43:22.878Z,30.77
2018-05-26T15:45:51.161Z,30.90
2018-05-26T15:48:19.426Z,30.93
2018-05-26T15:50:47.710Z,30.90
2018-05-26T15:53:15.978Z,30.57
2018-05-26T15:55:44.268Z,30.71
2018-05-26T15:58:12.534Z,31.20
2018-05-26T16:00:40.811Z,31.16
2018-05-26T16:03:09.095Z,31.09
2018-05-26T16:05:37.362Z,30.29
2018-05-26T16:08:05.666Z,30.53
2018-05-26T16:10:34.777Z,30.64
2018-05-26T16:13:03.058Z,30.27
2018-05-26T16:15:31.333Z,30.33
2018-05-26T16:17:59.616Z,30.06
2018-05-26T16:20:27.881Z,29.72
2018-05-26T16:22:56.162Z,29.57
2018-05-26T16:25:24.442Z,29.89
2018-05-26T16:27:52.717Z,29.95
2018-05-26T16:30:21.714Z,30.01
2018-05-26T16:32:50.001Z,30.11
2018-05-26T16:35:18.278Z,29.86
2018-05-26T16:37:46.565Z,30.07
2018-05-26T16:40:14.863Z,29.84
2018-05-26T16:42:43.158Z,29.94
2018-05-26T16:45:11.443Z,29.94
2018-05-26T16:47:39.716Z,29.97
2018-05-26T16:50:07.997Z,29.79
2018-05-26T16:52:36.271Z,29.94
2018-05-26T16:55:04.543Z,29.77
2018-05-26T16:57:32.908Z,29.71
2018-05-26T17:00:01.149Z,29.47
2018-05-26T17:02:29.417Z,29.80
2018-05-26T17:04:57.704Z,29.42
2018-05-26T17:07:25.973Z,29.17
2018-05-26T17:09:54.266Z,29.51
2018-05-26T17:12:22.546Z,29.52
2018-05-26T17:14:51.421Z,29.53
2018-05-26T17:17:19.710Z,29.57
2018-05-26T17:19:48.003Z,29.45
2018-05-26T17:22:16.292Z,29.35
2018-05-26T17:24:44.566Z,29.27
2018-05-26T17:27:12.947Z,29.14
2018-05-26T17:29:41.288Z,29.31
2018-05-26T17:32:09.562Z,29.30
2018-05-26T17:34:37.830Z,28.96
2018-05-26T17:37:06.147Z,29.19
2018-05-26T17:39:34.378Z,29.27
2018-05-26T17:42:02.670Z,29.36
2018-05-26T17:44:30.961Z,29.13
2018-05-26T17:46:59.247Z,28.93
2018-05-26T17:49:27.531Z,28.63
2018-05-26T17:51:55.805Z,28.90
2018-05-26T17:54:24.117Z,29.01
2018-05-26T17:56:52.425Z,28.93
2018-05-26T17:59:20.717Z,28.88
2018-05-26T18:01:48.994Z,28.88
2018-05-26T18:04:17.272Z,28.92
2018-05-26T18:06:45.558Z,28.73
2018-05-26T18:09:13.985Z,28.78
2018-05-26T18:11:42.275Z,28.72
2018-05-26T18:14:10.545Z,28.72
2018-05-26T18:16:38.886Z,28.70
2018-05-26T18:19:07.159Z,28.59
2018-05-26T18:21:35.438Z,28.48
2018-05-26T18:24:03.724Z,28.42
2018-05-26T18:26:31.993Z,28.40
2018-05-26T18:29:00.273Z,28.38
2018-05-26T18:31:28.541Z,28.26
2018-05-26T18:33:56.826Z,28.06
2018-05-26T18:36:25.106Z,28.03
2018-05-26T18:38:53.393Z,27.93
2018-05-26T18:41:21.663Z,27.77
2018-05-26T18:43:49.939Z,27.81
2018-05-26T18:46:18.276Z,27.77
2018-05-26T18:48:46.601Z,27.64
2018-05-26T18:51:14.865Z,27.75
2018-05-26T18:53:43.179Z,27.35
2018-05-26T18:56:11.611Z,27.54
2018-05-26T18:58:39.893Z,27.39
2018-05-26T19:01:08.156Z,27.34
2018-05-26T19:03:36.439Z,27.15
2018-05-26T19:06:04.706Z,26.96
2018-05-26T19:08:32.981Z,27.02
2018-05-26T19:11:01.275Z,27.04
2018-05-26T19:13:29.538Z,26.97
2018-05-26T19:15:57.900Z,27.09
2018-05-26T19:18:26.134Z,27.01
2018-05-26T19:20:54.410Z,26.91
2018-05-26T19:23:22.772Z,26.79
2018-05-26T19:25:51.060Z,26.62
2018-05-26T19:28:19.325Z,26.58
2018-05-26T19:30:47.967Z,26.49
2018-05-26T19:33:16.253Z,26.44
2018-05-26T19:35:44.542Z,26.43
2018-05-26T19:38:12.906Z,26.59
2018-05-26T19:40:41.189Z,26.43
2018-05-26T19:43:09.466Z,26.48
2018-05-26T19:45:37.767Z,26.34
2018-05-26T19:48:06.504Z,26.53
2018-05-26T19:50:34.786Z,26.14
2018-05-26T19:53:03.106Z,26.01
2018-05-26T19:55:31.385Z,25.88
2018-05-26T19:57:59.677Z,25.75
2018-05-26T20:00:27.955Z,25.91
2018-05-26T20:02:56.328Z,25.97
2018-05-26T20:05:24.631Z,25.94
2018-05-26T20:07:52.971Z,25.83
2018-05-26T20:10:21.365Z,25.49
2018-05-26T20:12:49.645Z,25.56
2018-05-26T20:15:18.242Z,25.36
2018-05-26T20:17:46.539Z,25.51
2018-05-26T20:20:14.822Z,25.44
2018-05-26T20:22:43.102Z,25.36
2018-05-26T20:25:11.395Z,25.50
2018-05-26T20:27:39.684Z,25.17
2018-05-26T20:30:07.969Z,25.36
2018-05-26T20:32:36.250Z,25.32
2018-05-26T20:35:04.538Z,24.93
2018-05-26T20:37:32.974Z,24.93
2018-05-26T20:40:01.258Z,24.91
2018-05-26T20:42:29.571Z,25.05
2018-05-26T20:44:57.861Z,24.91
2018-05-26T20:47:26.139Z,24.77
2018-05-26T20:49:54.623Z,24.67
2018-05-26T20:52:22.897Z,24.58
2018-05-26T20:54:51.174Z,24.48
2018-05-26T20:57:19.454Z,24.54
2018-05-26T20:59:47.721Z,24.74
2018-05-26T21:02:15.998Z,24.66
2018-05-26T21:04:44.275Z,24.71
2018-05-26T21:07:12.562Z,24.68
2018-05-26T21:09:40.873Z,24.48
2018-05-26T21:12:09.170Z,24.53
2018-05-26T21:14:37.442Z,24.45
2018-05-26T21:17:05.721Z,24.50
2018-05-26T21:19:34.025Z,24.61
2018-05-26T21:22:02.298Z,24.55
2018-05-26T21:24:30.558Z,24.52
2018-05-26T21:26:58.839Z,24.47
2018-05-26T21:29:27.123Z,24.54
2018-05-26T21:31:55.392Z,23.94
2018-05-26T21:34:23.675Z,24.00
2018-05-26T21:36:51.956Z,24.05
2018-05-26T21:39:20.409Z,24.04
2018-05-26T21:41:48.682Z,24.16
2018-05-26T21:44:16.958Z,24.14
2018-05-26T21:46:45.230Z,24.12
2018-05-26T21:49:13.539Z,24.10
2018-05-26T21:51:41.810Z,24.11
2018-05-26T21:54:10.086Z,23.88
2018-05-26T21:56:38.382Z,23.64
2018-05-26T21:59:06.640Z,23.36
2018-05-26T22:01:34.931Z,23.41
2018-05-26T22:04:03.203Z,23.48
2018-05-26T22:06:31.527Z,23.59
2018-05-26T22:08:59.758Z,23.70
2018-05-26T22:11:28.339Z,23.57
2018-05-26T22:13:56.621Z,23.50
2018-05-26T22:16:25.269Z,23.48
2018-05-26T22:18:53.545Z,23.28
2018-05-26T22:21:21.823Z,23.24
2018-05-26T22:23:50.105Z,23.25
2018-05-26T22:26:18.381Z,23.15
2018-05-26T22:28:46.661Z,23.05
2018-05-26T22:31:14.938Z,23.09
2018-05-26T22:33:43.232Z,23.00
2018-05-26T22:36:11.497Z,22.86
2018-05-26T22:38:39.800Z,22.88
2018-05-26T22:41:08.154Z,22.93
2018-05-26T22:43:36.438Z,22.92
2018-05-26T22:46:04.714Z,22.92
2018-05-26T22:48:32.975Z,23.08
2018-05-26T22:51:01.273Z,23.14
2018-05-26T22:53:29.555Z,23.10
2018-05-26T22:55:57.826Z,23.07
2018-05-26T22:58:26.111Z,23.21
2018-05-26T23:00:54.382Z,23.20
2018-05-26T23:03:22.670Z,23.13
2018-05-26T23:05:51.493Z,23.16
2018-05-26T23:08:20.661Z,23.15
2018-05-26T23:10:48.939Z,23.03
2018-05-26T23:13:17.201Z,23.15
2018-05-26T23:15:45.485Z,23.06
2018-05-26T23:18:13.752Z,23.11
2018-05-26T23:20:42.034Z,22.97
2018-05-26T23:23:10.321Z,22.90
2018-05-26T23:25:38.594Z,22.82
2018-05-26T23:28:06.861Z,22.83
2018-05-26T23:30:35.135Z,22.68
2018-05-26T23:33:03.425Z,22.38
2018-05-26T23:35:31.769Z,22.31
2018-05-26T23:38:00.021Z,22.43
2018-05-26T23:40:28.313Z,22.22
2018-05-26T23:42:56.596Z,22.34
2018-05-26T23:45:24.881Z,22.41
2018-05-26T23:47:53.166Z,22.33
2018-05-26T23:50:21.437Z,22.30
2018-05-26T23:52:49.714Z,22.44
2018-05-26T23:55:18.012Z,22.34
2018-05-26T23:57:46.289Z,22.35
